sensor_id;sensor_type;location;lat;lon;timestamp;pressure;altitude;pressure_sealevel;temperature;humidity
69460;BME280;57182;55.712;37.612;2022-09-09T00:04:48;100751.53;;;7.79;69.74
69460;BME280;57182;55.712;37.612;2022-09-09T00:10:39;100756.22;;;7.94;70.31
69460;BME280;57182;55.712;37.612;2022-09-09T00:13:41;100758.03;;;7.92;69.43
69460;BME280;57182;55.712;37.612;2022-09-09T00:16:29;100748.59;;;7.88;70.25
69460;BME280;57182;55.712;37.612;2022-09-09T00:19:11;100757.22;;;7.90;69.77
69460;BME280;57182;55.712;37.612;2022-09-09T00:22:04;100747.38;;;7.74;71.14
69460;BME280;57182;55.712;37.612;2022-09-09T00:24:54;100743.69;;;7.79;69.35
69460;BME280;57182;55.712;37.612;2022-09-09T00:27:54;100745.44;;;7.79;70.23
69460;BME280;57182;55.712;37.612;2022-09-09T00:30:34;100743.00;;;7.74;69.13
69460;BME280;57182;55.712;37.612;2022-09-09T00:33:13;100737.28;;;7.63;70.21
69460;BME280;57182;55.712;37.612;2022-09-09T00:35:52;100748.31;;;7.71;70.36
69460;BME280;57182;55.712;37.612;2022-09-09T00:38:33;100776.66;;;7.83;69.72
69460;BME280;57182;55.712;37.612;2022-09-09T00:44:09;100737.19;;;7.66;69.63
69460;BME280;57182;55.712;37.612;2022-09-09T00:47:04;100770.41;;;7.87;70.04
69460;BME280;57182;55.712;37.612;2022-09-09T00:50:05;100777.41;;;7.87;69.59
69460;BME280;57182;55.712;37.612;2022-09-09T00:55:41;100776.75;;;7.80;70.33
69460;BME280;57182;55.712;37.612;2022-09-09T00:58:13;100769.22;;;7.71;69.94
69460;BME280;57182;55.712;37.612;2022-09-09T01:00:50;100807.81;;;7.89;69.69
69460;BME280;57182;55.712;37.612;2022-09-09T01:03:29;100769.94;;;7.76;69.57
69460;BME280;57182;55.712;37.612;2022-09-09T01:06:12;100760.81;;;7.61;69.67
69460;BME280;57182;55.712;37.612;2022-09-09T01:12:24;100785.59;;;7.76;69.91
69460;BME280;57182;55.712;37.612;2022-09-09T01:15:08;100780.47;;;7.73;70.67
69460;BME280;57182;55.712;37.612;2022-09-09T01:17:50;100792.34;;;7.83;69.59
69460;BME280;57182;55.712;37.612;2022-09-09T01:20:47;100759.22;;;7.57;70.20
69460;BME280;57182;55.712;37.612;2022-09-09T01:29:24;100797.47;;;7.60;70.11
69460;BME280;57182;55.712;37.612;2022-09-09T01:32:41;100806.50;;;7.76;70.51
69460;BME280;57182;55.712;37.612;2022-09-09T01:35:55;100808.19;;;7.77;70.93
69460;BME280;57182;55.712;37.612;2022-09-09T01:38:36;100814.28;;;7.78;70.66
69460;BME280;57182;55.712;37.612;2022-09-09T01:41:07;100807.50;;;7.72;69.77
69460;BME280;57182;55.712;37.612;2022-09-09T01:43:49;100778.72;;;7.47;69.90
69460;BME280;57182;55.712;37.612;2022-09-09T01:46:24;100800.06;;;7.60;70.20
69460;BME280;57182;55.712;37.612;2022-09-09T01:48:55;100836.34;;;7.69;70.36
69460;BME280;57182;55.712;37.612;2022-09-09T01:51:28;100797.81;;;7.49;70.24
69460;BME280;57182;55.712;37.612;2022-09-09T01:53:58;100784.03;;;7.44;70.34
69460;BME280;57182;55.712;37.612;2022-09-09T02:00:05;100814.03;;;7.59;70.97
69460;BME280;57182;55.712;37.612;2022-09-09T02:03:00;100831.25;;;7.66;70.38
69460;BME280;57182;55.712;37.612;2022-09-09T02:08:55;100831.25;;;7.65;71.02
69460;BME280;57182;55.712;37.612;2022-09-09T02:11:26;100833.03;;;7.64;70.27
69460;BME280;57182;55.712;37.612;2022-09-09T02:14:13;100840.38;;;7.53;70.32
69460;BME280;57182;55.712;37.612;2022-09-09T02:17:03;100807.50;;;7.46;70.76
69460;BME280;57182;55.712;37.612;2022-09-09T02:22:45;100812.03;;;7.41;71.11
69460;BME280;57182;55.712;37.612;2022-09-09T02:25:19;100834.13;;;7.57;70.66
69460;BME280;57182;55.712;37.612;2022-09-09T02:31:51;100850.72;;;7.56;71.05
69460;BME280;57182;55.712;37.612;2022-09-09T02:34:28;100832.09;;;7.39;70.34
69460;BME280;57182;55.712;37.612;2022-09-09T02:37:01;100839.69;;;7.46;71.26
69460;BME280;57182;55.712;37.612;2022-09-09T02:40:40;100850.91;;;7.50;70.97
69460;BME280;57182;55.712;37.612;2022-09-09T02:43:22;100832.25;;;7.34;71.63
69460;BME280;57182;55.712;37.612;2022-09-09T02:46:56;100854.66;;;7.41;71.24
69460;BME280;57182;55.712;37.612;2022-09-09T02:52:02;100869.38;;;7.44;71.79
69460;BME280;57182;55.712;37.612;2022-09-09T02:54:39;100896.31;;;7.46;71.13
69460;BME280;57182;55.712;37.612;2022-09-09T02:57:25;100880.75;;;7.43;70.95
69460;BME280;57182;55.712;37.612;2022-09-09T03:00:05;100862.38;;;7.17;71.30
69460;BME280;57182;55.712;37.612;2022-09-09T03:02:35;100854.91;;;7.05;71.01
69460;BME280;57182;55.712;37.612;2022-09-09T03:05:33;100860.00;;;7.09;71.69
69460;BME280;57182;55.712;37.612;2022-09-09T03:08:04;100870.59;;;7.05;72.31
69460;BME280;57182;55.712;37.612;2022-09-09T03:10:33;100869.97;;;6.95;71.58
69460;BME280;57182;55.712;37.612;2022-09-09T03:13:06;100887.34;;;6.96;71.81
69460;BME280;57182;55.712;37.612;2022-09-09T03:15:37;100877.22;;;6.85;72.60
69460;BME280;57182;55.712;37.612;2022-09-09T03:18:16;100879.19;;;6.77;72.47
69460;BME280;57182;55.712;37.612;2022-09-09T03:20:50;100877.56;;;6.73;72.47
69460;BME280;57182;55.712;37.612;2022-09-09T03:23:25;100874.19;;;6.70;72.88
69460;BME280;57182;55.712;37.612;2022-09-09T03:25:55;100865.59;;;6.66;73.32
69460;BME280;57182;55.712;37.612;2022-09-09T03:28:58;100886.19;;;6.75;73.18
69460;BME280;57182;55.712;37.612;2022-09-09T03:31:29;100859.47;;;6.67;72.86
69460;BME280;57182;55.712;37.612;2022-09-09T03:33:58;100866.47;;;6.65;72.63
69460;BME280;57182;55.712;37.612;2022-09-09T03:36:30;100877.72;;;6.67;72.86
69460;BME280;57182;55.712;37.612;2022-09-09T03:39:00;100868.63;;;6.51;73.46
69460;BME280;57182;55.712;37.612;2022-09-09T03:41:41;100886.47;;;6.66;73.81
69460;BME280;57182;55.712;37.612;2022-09-09T03:44:09;100890.56;;;6.75;73.04
69460;BME280;57182;55.712;37.612;2022-09-09T03:46:39;100887.34;;;6.65;73.39
69460;BME280;57182;55.712;37.612;2022-09-09T03:49:10;100904.44;;;6.77;73.84
69460;BME280;57182;55.712;37.612;2022-09-09T03:51:42;100892.50;;;6.68;73.53
69460;BME280;57182;55.712;37.612;2022-09-09T03:54:16;100893.13;;;6.76;73.08
69460;BME280;57182;55.712;37.612;2022-09-09T03:56:49;100917.88;;;6.92;73.45
69460;BME280;57182;55.712;37.612;2022-09-09T03:59:25;100915.06;;;7.00;75.13
69460;BME280;57182;55.712;37.612;2022-09-09T04:01:56;100880.97;;;6.75;73.33
69460;BME280;57182;55.712;37.612;2022-09-09T04:04:28;100918.72;;;6.94;73.21
69460;BME280;57182;55.712;37.612;2022-09-09T04:07:02;100890.66;;;7.03;73.63
69460;BME280;57182;55.712;37.612;2022-09-09T04:09:53;100883.44;;;7.11;72.78
69460;BME280;57182;55.712;37.612;2022-09-09T04:12:26;100898.94;;;7.17;72.13
69460;BME280;57182;55.712;37.612;2022-09-09T04:14:54;100902.25;;;7.22;72.29
69460;BME280;57182;55.712;37.612;2022-09-09T04:17:23;100897.69;;;7.28;72.12
69460;BME280;57182;55.712;37.612;2022-09-09T04:19:52;100901.00;;;7.35;71.98
69460;BME280;57182;55.712;37.612;2022-09-09T04:22:26;100889.63;;;7.36;71.97
69460;BME280;57182;55.712;37.612;2022-09-09T04:25:00;100904.47;;;7.35;72.07
69460;BME280;57182;55.712;37.612;2022-09-09T04:27:31;100940.34;;;7.58;72.34
69460;BME280;57182;55.712;37.612;2022-09-09T04:30:29;100935.06;;;7.59;71.46
69460;BME280;57182;55.712;37.612;2022-09-09T04:33:11;100897.06;;;7.49;71.04
69460;BME280;57182;55.712;37.612;2022-09-09T04:35:53;100920.25;;;7.60;71.39
69460;BME280;57182;55.712;37.612;2022-09-09T04:38:23;100924.03;;;7.79;71.81
69460;BME280;57182;55.712;37.612;2022-09-09T04:40:58;100937.66;;;7.89;71.31
69460;BME280;57182;55.712;37.612;2022-09-09T04:43:27;100928.06;;;7.89;70.35
69460;BME280;57182;55.712;37.612;2022-09-09T04:46:01;100930.03;;;8.09;71.13
69460;BME280;57182;55.712;37.612;2022-09-09T04:48:38;100922.47;;;8.00;70.36
69460;BME280;57182;55.712;37.612;2022-09-09T04:51:24;100899.69;;;8.03;69.17
69460;BME280;57182;55.712;37.612;2022-09-09T04:58:39;100936.41;;;9.02;68.49
69460;BME280;57182;55.712;37.612;2022-09-09T05:01:18;100918.97;;;10.14;63.19
69460;BME280;57182;55.712;37.612;2022-09-09T05:03:48;100931.03;;;11.56;66.10
69460;BME280;57182;55.712;37.612;2022-09-09T05:06:22;100915.19;;;12.81;64.05
69460;BME280;57182;55.712;37.612;2022-09-09T05:09:13;100916.38;;;13.87;63.37
69460;BME280;57182;55.712;37.612;2022-09-09T05:11:46;100940.16;;;14.78;61.70
69460;BME280;57182;55.712;37.612;2022-09-09T05:14:26;100912.69;;;15.37;59.28
69460;BME280;57182;55.712;37.612;2022-09-09T05:17:09;100932.72;;;16.23;55.42
69460;BME280;57182;55.712;37.612;2022-09-09T05:19:55;100919.09;;;16.81;51.37
69460;BME280;57182;55.712;37.612;2022-09-09T05:22:31;100937.84;;;17.41;48.12
69460;BME280;57182;55.712;37.612;2022-09-09T05:25:23;100929.63;;;17.69;45.62
69460;BME280;57182;55.712;37.612;2022-09-09T05:27:56;100925.72;;;17.98;49.02
69460;BME280;57182;55.712;37.612;2022-09-09T05:30:28;100936.53;;;18.32;47.55
69460;BME280;57182;55.712;37.612;2022-09-09T05:33:09;100925.69;;;18.46;46.57
69460;BME280;57182;55.712;37.612;2022-09-09T05:35:43;100918.38;;;18.60;45.73
69460;BME280;57182;55.712;37.612;2022-09-09T05:38:16;100936.16;;;19.06;44.48
69460;BME280;57182;55.712;37.612;2022-09-09T05:40:48;100931.91;;;19.25;40.60
69460;BME280;57182;55.712;37.612;2022-09-09T05:43:20;100911.97;;;19.42;42.58
69460;BME280;57182;55.712;37.612;2022-09-09T05:45:47;100930.59;;;19.64;41.51
69460;BME280;57182;55.712;37.612;2022-09-09T05:48:18;100919.09;;;19.75;39.51
69460;BME280;57182;55.712;37.612;2022-09-09T05:50:53;100931.16;;;19.90;37.28
69460;BME280;57182;55.712;37.612;2022-09-09T05:53:23;100933.28;;;20.18;39.56
69460;BME280;57182;55.712;37.612;2022-09-09T05:59:17;100913.09;;;20.36;38.25
69460;BME280;57182;55.712;37.612;2022-09-09T06:01:50;100931.00;;;20.66;37.58
69460;BME280;57182;55.712;37.612;2022-09-09T06:04:36;100909.19;;;20.40;37.29
69460;BME280;57182;55.712;37.612;2022-09-09T06:07:16;100922.28;;;20.43;37.01
69460;BME280;57182;55.712;37.612;2022-09-09T06:09:48;100932.41;;;20.49;34.96
69460;BME280;57182;55.712;37.612;2022-09-09T06:12:35;100943.53;;;20.54;33.50
69460;BME280;57182;55.712;37.612;2022-09-09T06:15:08;100937.72;;;20.60;35.67
69460;BME280;57182;55.712;37.612;2022-09-09T06:17:36;100941.94;;;21.04;35.04
69460;BME280;57182;55.712;37.612;2022-09-09T06:20:13;100931.69;;;21.30;34.31
69460;BME280;57182;55.712;37.612;2022-09-09T06:22:41;100946.19;;;21.67;34.09
69460;BME280;57182;55.712;37.612;2022-09-09T06:25:15;100931.81;;;21.99;32.47
69460;BME280;57182;55.712;37.612;2022-09-09T06:28:15;100943.47;;;21.88;33.00
69460;BME280;57182;55.712;37.612;2022-09-09T06:30:43;100946.94;;;21.79;32.63
69460;BME280;57182;55.712;37.612;2022-09-09T06:33:11;100952.22;;;21.69;33.33
69460;BME280;57182;55.712;37.612;2022-09-09T06:35:39;100947.13;;;21.26;33.17
69460;BME280;57182;55.712;37.612;2022-09-09T06:38:14;100951.53;;;19.58;33.96
69460;BME280;57182;55.712;37.612;2022-09-09T06:40:55;100977.53;;;18.16;36.06
69460;BME280;57182;55.712;37.612;2022-09-09T06:43:26;100965.34;;;16.89;37.82
69460;BME280;57182;55.712;37.612;2022-09-09T06:46:00;100986.22;;;15.60;40.37
69460;BME280;57182;55.712;37.612;2022-09-09T06:48:29;100984.22;;;14.78;40.91
69460;BME280;57182;55.712;37.612;2022-09-09T06:51:16;100984.31;;;14.31;44.03
69460;BME280;57182;55.712;37.612;2022-09-09T06:53:49;100970.19;;;14.16;42.62
69460;BME280;57182;55.712;37.612;2022-09-09T06:56:27;100999.66;;;14.24;43.82
69460;BME280;57182;55.712;37.612;2022-09-09T06:59:04;100992.44;;;14.12;43.62
69460;BME280;57182;55.712;37.612;2022-09-09T07:01:34;100973.53;;;14.04;42.92
69460;BME280;57182;55.712;37.612;2022-09-09T07:04:05;101010.25;;;14.40;42.56
69460;BME280;57182;55.712;37.612;2022-09-09T07:06:38;100974.25;;;14.53;42.18
69460;BME280;57182;55.712;37.612;2022-09-09T07:09:16;100995.59;;;14.94;41.91
69460;BME280;57182;55.712;37.612;2022-09-09T07:11:48;100979.72;;;14.64;41.44
69460;BME280;57182;55.712;37.612;2022-09-09T07:14:18;100982.63;;;14.30;41.54
69460;BME280;57182;55.712;37.612;2022-09-09T07:16:51;101005.03;;;14.07;42.40
69460;BME280;57182;55.712;37.612;2022-09-09T07:19:27;100976.50;;;14.14;41.97
69460;BME280;57182;55.712;37.612;2022-09-09T07:21:56;100993.59;;;14.97;41.89
69460;BME280;57182;55.712;37.612;2022-09-09T07:24:34;101014.66;;;15.85;40.90
69460;BME280;57182;55.712;37.612;2022-09-09T07:27:02;100992.06;;;15.80;40.47
69460;BME280;57182;55.712;37.612;2022-09-09T07:29:34;100989.81;;;15.59;40.56
69460;BME280;57182;55.712;37.612;2022-09-09T07:32:02;101018.94;;;15.45;40.96
69460;BME280;57182;55.712;37.612;2022-09-09T07:34:39;101001.97;;;15.20;41.26
69460;BME280;57182;55.712;37.612;2022-09-09T07:37:06;101016.97;;;15.19;40.84
69460;BME280;57182;55.712;37.612;2022-09-09T07:39:35;101012.84;;;15.15;40.65
69460;BME280;57182;55.712;37.612;2022-09-09T07:42:05;100993.28;;;15.18;40.20
69460;BME280;57182;55.712;37.612;2022-09-09T07:44:38;101033.59;;;15.51;39.45
69460;BME280;57182;55.712;37.612;2022-09-09T07:47:13;101001.56;;;15.26;39.68
69460;BME280;57182;55.712;37.612;2022-09-09T07:49:47;101006.91;;;14.82;40.10
69460;BME280;57182;55.712;37.612;2022-09-09T07:52:24;101031.69;;;14.49;40.36
69460;BME280;57182;55.712;37.612;2022-09-09T07:54:55;101011.56;;;14.16;40.75
69460;BME280;57182;55.712;37.612;2022-09-09T07:57:24;101020.00;;;13.91;40.57
69460;BME280;57182;55.712;37.612;2022-09-09T07:59:54;101063.28;;;14.04;40.57
69460;BME280;57182;55.712;37.612;2022-09-09T08:02:24;101043.50;;;13.80;40.93
69460;BME280;57182;55.712;37.612;2022-09-09T08:04:52;101037.97;;;13.69;40.63
69460;BME280;57182;55.712;37.612;2022-09-09T08:07:22;101064.72;;;13.94;40.70
69460;BME280;57182;55.712;37.612;2022-09-09T08:09:53;101054.94;;;15.04;39.54
69460;BME280;57182;55.712;37.612;2022-09-09T08:12:27;101039.28;;;15.43;39.43
69460;BME280;57182;55.712;37.612;2022-09-09T08:14:55;101020.78;;;15.29;39.58
69460;BME280;57182;55.712;37.612;2022-09-09T08:17:29;101021.50;;;15.61;39.31
69460;BME280;57182;55.712;37.612;2022-09-09T08:20:04;101025.38;;;16.10;37.99
69460;BME280;57182;55.712;37.612;2022-09-09T08:22:33;101047.91;;;16.03;39.38
69460;BME280;57182;55.712;37.612;2022-09-09T08:25:01;101040.28;;;15.70;39.75
69460;BME280;57182;55.712;37.612;2022-09-09T08:27:31;101040.78;;;15.33;40.29
69460;BME280;57182;55.712;37.612;2022-09-09T08:30:00;101035.16;;;14.95;40.68
69460;BME280;57182;55.712;37.612;2022-09-09T08:32:36;101043.94;;;14.96;40.47
69460;BME280;57182;55.712;37.612;2022-09-09T08:35:08;101030.13;;;15.35;40.54
69460;BME280;57182;55.712;37.612;2022-09-09T08:37:37;101026.81;;;15.31;40.31
69460;BME280;57182;55.712;37.612;2022-09-09T08:40:24;101035.00;;;15.70;39.31
69460;BME280;57182;55.712;37.612;2022-09-09T08:42:56;101057.00;;;16.54;38.29
69460;BME280;57182;55.712;37.612;2022-09-09T08:45:50;101045.78;;;18.16;34.77
69460;BME280;57182;55.712;37.612;2022-09-09T08:51:12;101051.22;;;18.38;35.88
69460;BME280;57182;55.712;37.612;2022-09-09T08:53:44;101055.94;;;17.60;35.62
69460;BME280;57182;55.712;37.612;2022-09-09T08:56:26;101046.81;;;16.87;36.56
69460;BME280;57182;55.712;37.612;2022-09-09T08:59:28;101067.41;;;16.02;37.42
69460;BME280;57182;55.712;37.612;2022-09-09T09:02:05;101066.66;;;16.41;37.16
69460;BME280;57182;55.712;37.612;2022-09-09T09:07:32;101049.41;;;18.86;32.94
69460;BME280;57182;55.712;37.612;2022-09-09T09:13:43;101067.56;;;17.33;35.72
69460;BME280;57182;55.712;37.612;2022-09-09T09:16:17;101069.00;;;16.60;37.58
69460;BME280;57182;55.712;37.612;2022-09-09T09:18:54;101067.91;;;15.81;38.83
69460;BME280;57182;55.712;37.612;2022-09-09T09:21:43;101080.47;;;15.33;40.19
69460;BME280;57182;55.712;37.612;2022-09-09T09:24:19;101073.78;;;14.98;40.70
69460;BME280;57182;55.712;37.612;2022-09-09T09:26:50;101068.41;;;14.70;40.49
69460;BME280;57182;55.712;37.612;2022-09-09T09:29:26;101065.53;;;14.43;40.98
69460;BME280;57182;55.712;37.612;2022-09-09T09:31:59;101037.13;;;14.46;40.40
69460;BME280;57182;55.712;37.612;2022-09-09T09:34:29;101050.22;;;15.81;38.95
69460;BME280;57182;55.712;37.612;2022-09-09T09:36:57;101060.59;;;17.32;36.80
69460;BME280;57182;55.712;37.612;2022-09-09T09:39:32;101025.88;;;18.21;34.24
69460;BME280;57182;55.712;37.612;2022-09-09T09:42:25;101029.50;;;19.37;33.77
69460;BME280;57182;55.712;37.612;2022-09-09T09:45:13;101039.81;;;19.97;31.28
69460;BME280;57182;55.712;37.612;2022-09-09T09:47:45;101028.31;;;19.64;33.36
69460;BME280;57182;55.712;37.612;2022-09-09T09:50:19;101037.31;;;18.58;33.44
69460;BME280;57182;55.712;37.612;2022-09-09T09:53:02;101052.47;;;17.60;35.45
69460;BME280;57182;55.712;37.612;2022-09-09T09:55:35;101035.94;;;16.65;37.42
69460;BME280;57182;55.712;37.612;2022-09-09T09:58:06;101052.44;;;16.56;37.78
69460;BME280;57182;55.712;37.612;2022-09-09T10:00:51;101048.84;;;16.16;38.10
69460;BME280;57182;55.712;37.612;2022-09-09T10:05:59;101018.66;;;16.46;37.62
69460;BME280;57182;55.712;37.612;2022-09-09T10:08:27;101042.97;;;17.56;36.59
69460;BME280;57182;55.712;37.612;2022-09-09T10:11:13;101060.03;;;18.39;34.90
69460;BME280;57182;55.712;37.612;2022-09-09T10:14:01;101044.59;;;18.44;33.11
69460;BME280;57182;55.712;37.612;2022-09-09T10:17:01;101034.63;;;18.35;33.18
69460;BME280;57182;55.712;37.612;2022-09-09T10:19:34;101024.66;;;17.89;33.92
69460;BME280;57182;55.712;37.612;2022-09-09T10:22:25;101059.44;;;17.61;34.02
69460;BME280;57182;55.712;37.612;2022-09-09T10:30:42;101064.34;;;16.22;37.28
69460;BME280;57182;55.712;37.612;2022-09-09T10:33:44;101058.81;;;15.70;38.63
69460;BME280;57182;55.712;37.612;2022-09-09T10:36:25;101076.22;;;15.60;39.47
69460;BME280;57182;55.712;37.612;2022-09-09T10:39:34;101075.09;;;15.50;40.20
69460;BME280;57182;55.712;37.612;2022-09-09T10:42:16;101041.25;;;15.11;40.09
69460;BME280;57182;55.712;37.612;2022-09-09T10:53:36;101059.06;;;15.08;39.70
69460;BME280;57182;55.712;37.612;2022-09-09T10:56:17;101056.09;;;15.14;38.70
69460;BME280;57182;55.712;37.612;2022-09-09T10:59:08;101068.47;;;15.57;37.66
69460;BME280;57182;55.712;37.612;2022-09-09T11:04:16;101069.41;;;15.70;37.91
69460;BME280;57182;55.712;37.612;2022-09-09T11:06:48;101043.25;;;15.22;38.51
69460;BME280;57182;55.712;37.612;2022-09-09T11:09:24;101041.19;;;14.97;39.10
69460;BME280;57182;55.712;37.612;2022-09-09T11:11:57;101046.91;;;14.76;39.99
69460;BME280;57182;55.712;37.612;2022-09-09T11:14:32;101082.59;;;14.83;40.98
69460;BME280;57182;55.712;37.612;2022-09-09T11:19:40;101048.69;;;14.75;40.61
69460;BME280;57182;55.712;37.612;2022-09-09T11:22:17;101088.91;;;14.96;40.14
69460;BME280;57182;55.712;37.612;2022-09-09T11:24:53;101073.13;;;14.94;40.71
69460;BME280;57182;55.712;37.612;2022-09-09T11:27:28;101059.00;;;14.80;40.63
69460;BME280;57182;55.712;37.612;2022-09-09T11:32:40;101058.25;;;16.75;36.94
69460;BME280;57182;55.712;37.612;2022-09-09T11:38:29;101051.34;;;18.84;32.58
69460;BME280;57182;55.712;37.612;2022-09-09T11:41:02;101056.88;;;18.34;33.65
69460;BME280;57182;55.712;37.612;2022-09-09T11:46:11;101061.84;;;17.14;35.83
69460;BME280;57182;55.712;37.612;2022-09-09T11:48:45;101070.53;;;16.76;35.54
69460;BME280;57182;55.712;37.612;2022-09-09T11:53:58;101066.47;;;16.44;37.10
69460;BME280;57182;55.712;37.612;2022-09-09T11:56:34;101046.00;;;17.12;35.81
69460;BME280;57182;55.712;37.612;2022-09-09T11:59:26;101054.72;;;17.02;36.02
69460;BME280;57182;55.712;37.612;2022-09-09T12:02:02;101046.59;;;16.78;36.37
69460;BME280;57182;55.712;37.612;2022-09-09T12:04:43;101076.13;;;16.45;36.16
69460;BME280;57182;55.712;37.612;2022-09-09T12:10:20;101039.59;;;16.89;35.05
69460;BME280;57182;55.712;37.612;2022-09-09T12:12:51;101037.66;;;18.17;34.15
69460;BME280;57182;55.712;37.612;2022-09-09T12:15:27;101046.38;;;19.14;32.24
69460;BME280;57182;55.712;37.612;2022-09-09T12:17:58;101048.91;;;19.73;32.05
69460;BME280;57182;55.712;37.612;2022-09-09T12:23:29;101032.31;;;19.58;31.75
69460;BME280;57182;55.712;37.612;2022-09-09T12:32:08;101047.44;;;20.35;30.39
69460;BME280;57182;55.712;37.612;2022-09-09T12:37:34;101021.41;;;18.46;32.90
69460;BME280;57182;55.712;37.612;2022-09-09T12:42:54;101039.88;;;16.72;35.77
69460;BME280;57182;55.712;37.612;2022-09-09T12:45:29;101027.53;;;16.18;36.19
69460;BME280;57182;55.712;37.612;2022-09-09T12:48:04;101046.31;;;16.42;35.69
69460;BME280;57182;55.712;37.612;2022-09-09T12:50:38;101053.03;;;16.33;36.07
69460;BME280;57182;55.712;37.612;2022-09-09T12:53:22;101048.53;;;16.21;36.08
69460;BME280;57182;55.712;37.612;2022-09-09T12:55:57;101028.75;;;15.86;35.72
69460;BME280;57182;55.712;37.612;2022-09-09T12:58:27;101052.88;;;15.81;36.25
69460;BME280;57182;55.712;37.612;2022-09-09T13:01:00;101024.03;;;15.62;36.75
69460;BME280;57182;55.712;37.612;2022-09-09T13:03:33;101036.84;;;15.40;37.41
69460;BME280;57182;55.712;37.612;2022-09-09T13:06:12;101029.63;;;15.14;38.00
69460;BME280;57182;55.712;37.612;2022-09-09T13:08:41;101048.63;;;15.21;37.87
69460;BME280;57182;55.712;37.612;2022-09-09T13:11:14;101033.03;;;15.02;38.68
69460;BME280;57182;55.712;37.612;2022-09-09T13:13:50;101050.25;;;14.93;38.67
69460;BME280;57182;55.712;37.612;2022-09-09T13:18:52;101055.72;;;15.20;37.69
69460;BME280;57182;55.712;37.612;2022-09-09T13:21:37;101026.63;;;15.20;37.12
69460;BME280;57182;55.712;37.612;2022-09-09T13:27:00;101033.13;;;14.85;38.13
69460;BME280;57182;55.712;37.612;2022-09-09T13:29:32;101027.69;;;14.88;38.07
69460;BME280;57182;55.712;37.612;2022-09-09T13:32:04;101032.56;;;15.09;38.17
69460;BME280;57182;55.712;37.612;2022-09-09T13:34:34;101039.34;;;15.57;37.32
69460;BME280;57182;55.712;37.612;2022-09-09T13:37:22;101023.59;;;16.11;36.67
69460;BME280;57182;55.712;37.612;2022-09-09T13:39:52;101040.47;;;17.03;35.39
69460;BME280;57182;55.712;37.612;2022-09-09T13:42:31;101026.81;;;17.46;34.35
69460;BME280;57182;55.712;37.612;2022-09-09T13:45:01;101031.19;;;17.47;34.63
69460;BME280;57182;55.712;37.612;2022-09-09T13:47:35;101035.75;;;16.68;35.60
69460;BME280;57182;55.712;37.612;2022-09-09T13:52:52;101043.81;;;16.79;35.69
69460;BME280;57182;55.712;37.612;2022-09-09T13:55:24;101019.34;;;16.08;36.38
69460;BME280;57182;55.712;37.612;2022-09-09T13:58:01;101047.22;;;15.43;37.36
69460;BME280;57182;55.712;37.612;2022-09-09T14:00:31;101035.47;;;15.05;38.41
69460;BME280;57182;55.712;37.612;2022-09-09T14:02:59;101048.88;;;15.02;38.85
69460;BME280;57182;55.712;37.612;2022-09-09T14:05:33;101047.91;;;14.89;39.59
69460;BME280;57182;55.712;37.612;2022-09-09T14:08:06;101051.03;;;14.95;39.70
69460;BME280;57182;55.712;37.612;2022-09-09T14:10:36;101026.25;;;14.82;39.24
69460;BME280;57182;55.712;37.612;2022-09-09T14:13:04;101024.88;;;14.61;39.62
69460;BME280;57182;55.712;37.612;2022-09-09T14:15:31;101050.44;;;14.61;39.86
69460;BME280;57182;55.712;37.612;2022-09-09T14:17:59;101019.59;;;14.30;40.38
69460;BME280;57182;55.712;37.612;2022-09-09T14:20:26;101027.69;;;14.11;40.55
69460;BME280;57182;55.712;37.612;2022-09-09T14:22:53;101018.91;;;13.95;40.83
69460;BME280;57182;55.712;37.612;2022-09-09T14:25:21;101045.13;;;13.98;40.98
69460;BME280;57182;55.712;37.612;2022-09-09T14:27:48;101036.16;;;13.85;41.53
69460;BME280;57182;55.712;37.612;2022-09-09T14:30:18;101043.06;;;13.72;41.51
69460;BME280;57182;55.712;37.612;2022-09-09T14:32:45;101013.97;;;13.41;41.73
69460;BME280;57182;55.712;37.612;2022-09-09T14:35:13;101023.81;;;13.37;41.83
69460;BME280;57182;55.712;37.612;2022-09-09T14:37:40;101044.88;;;13.39;42.32
69460;BME280;57182;55.712;37.612;2022-09-09T14:40:08;101020.47;;;13.18;42.17
69460;BME280;57182;55.712;37.612;2022-09-09T14:42:36;101041.09;;;13.10;42.46
69460;BME280;57182;55.712;37.612;2022-09-09T14:45:04;101043.88;;;13.07;42.62
69460;BME280;57182;55.712;37.612;2022-09-09T14:47:32;101046.88;;;12.99;42.82
69460;BME280;57182;55.712;37.612;2022-09-09T14:50:00;101066.84;;;13.03;42.47
69460;BME280;57182;55.712;37.612;2022-09-09T14:52:34;101050.75;;;12.92;42.75
69460;BME280;57182;55.712;37.612;2022-09-09T14:55:01;101039.88;;;12.81;42.63
69460;BME280;57182;55.712;37.612;2022-09-09T14:57:28;101031.44;;;12.75;43.18
69460;BME280;57182;55.712;37.612;2022-09-09T14:59:56;101039.56;;;12.70;43.33
69460;BME280;57182;55.712;37.612;2022-09-09T15:02:26;101051.34;;;12.80;43.65
69460;BME280;57182;55.712;37.612;2022-09-09T15:04:53;101036.47;;;12.62;44.39
69460;BME280;57182;55.712;37.612;2022-09-09T15:07:25;101030.59;;;12.57;44.77
69460;BME280;57182;55.712;37.612;2022-09-09T15:09:54;101012.72;;;12.45;44.79
69460;BME280;57182;55.712;37.612;2022-09-09T15:12:22;101031.88;;;12.48;45.17
69460;BME280;57182;55.712;37.612;2022-09-09T15:14:50;101050.41;;;12.64;45.05
69460;BME280;57182;55.712;37.612;2022-09-09T15:17:21;101047.41;;;12.54;45.53
69460;BME280;57182;55.712;37.612;2022-09-09T15:19:49;101041.94;;;12.57;45.75
69460;BME280;57182;55.712;37.612;2022-09-09T15:22:19;101026.97;;;12.41;45.59
69460;BME280;57182;55.712;37.612;2022-09-09T15:24:46;101028.53;;;12.45;45.36